Time;durP1;ratioP1;P1;durP2;ratioP2;P2;SDS_P1;SDS_P2;PMS_P1;PMS_P2;Temp;Humidity;BMP_temperature;BMP_pressure;BME280_temperature;BME280_humidity;BME280_pressure;Samples;Min_cycle;Max_cycle;Signal;HPM_P1;HPM_P2
2021/09/18 00:00:29;;;;;;;47.15;29.70;;;11.40;99.90;;;;;;4191973;28;20043;-72
2021/09/18 00:02:30;;;;;;;49.45;31.30;;;11.50;99.90;;;;;;4191819;28;20029;-72
2021/09/18 00:04:31;;;;;;;41.45;28.23;;;11.40;99.90;;;;;;4188850;28;20444;-72
2021/09/18 00:06:33;;;;;;;40.38;26.25;;;11.40;99.90;;;;;;4192496;28;20028;-72
2021/09/18 00:08:33;;;;;;;39.17;25.23;;;11.50;99.90;;;;;;4196258;28;20468;-72
2021/09/18 00:10:34;;;;;;;42.40;26.73;;;11.50;99.90;;;;;;4189210;28;20035;-72
2021/09/18 00:12:36;;;;;;;41.13;25.50;;;11.50;99.90;;;;;;4193603;28;20047;-72
2021/09/18 00:14:39;;;;;;;40.83;26.27;;;11.40;99.90;;;;;;4187227;28;20654;-72
2021/09/18 00:16:40;;;;;;;46.35;27.08;;;11.40;99.90;;;;;;4195691;28;20044;-73
2021/09/18 00:18:40;;;;;;;42.50;26.70;;;11.30;99.90;;;;;;4184784;28;20380;-73
2021/09/18 00:20:41;;;;;;;46.55;28.23;;;11.40;99.90;;;;;;4194680;28;20524;-73
2021/09/18 00:22:42;;;;;;;47.78;28.40;;;11.40;99.90;;;;;;4192870;28;20078;-73
2021/09/18 00:24:42;;;;;;;41.33;27.85;;;11.40;99.90;;;;;;4193550;28;20028;-72
2021/09/18 00:26:43;;;;;;;48.30;29.50;;;11.30;99.90;;;;;;4190868;28;20033;-73
2021/09/18 00:28:43;;;;;;;50.35;31.15;;;11.30;99.90;;;;;;4195009;28;20032;-72
2021/09/18 00:30:44;;;;;;;49.55;31.17;;;11.30;99.90;;;;;;4187324;28;20556;-72
2021/09/18 00:32:45;;;;;;;47.72;28.55;;;11.40;99.90;;;;;;4193916;28;20084;-72
2021/09/18 00:34:45;;;;;;;44.47;28.73;;;11.40;99.90;;;;;;4188033;28;20263;-73
2021/09/18 00:36:46;;;;;;;44.25;26.60;;;11.30;99.90;;;;;;4191146;28;20031;-73
2021/09/18 00:38:47;;;;;;;42.05;27.45;;;11.30;99.90;;;;;;4197049;28;20041;-73
2021/09/18 00:40:48;;;;;;;42.22;28.08;;;11.30;99.90;;;;;;4191601;28;20075;-73
2021/09/18 00:42:49;;;;;;;60.60;33.83;;;11.20;99.90;;;;;;4196225;28;20086;-72
2021/09/18 00:44:51;;;;;;;48.60;29.65;;;11.20;99.90;;;;;;4198030;28;20032;-72
2021/09/18 00:46:52;;;;;;;44.47;28.30;;;11.20;99.90;;;;;;4197329;28;20043;-72
2021/09/18 00:48:53;;;;;;;47.03;30.33;;;11.20;99.90;;;;;;4197717;28;20119;-72
2021/09/18 00:50:54;;;;;;;46.47;28.77;;;11.10;99.90;;;;;;4197290;28;20040;-72
2021/09/18 00:52:54;;;;;;;50.33;29.67;;;11.10;99.90;;;;;;4192632;28;20089;-71
2021/09/18 00:54:55;;;;;;;38.10;26.00;;;11.00;99.90;;;;;;4198069;28;20472;-72
2021/09/18 00:56:58;;;;;;;42.28;29.67;;;11.00;99.90;;;;;;4190717;28;20052;-73
2021/09/18 00:58:59;;;;;;;41.70;28.13;;;11.00;99.90;;;;;;4191628;28;20491;-72
2021/09/18 01:00:59;;;;;;;49.63;30.38;;;11.00;99.90;;;;;;4189356;28;20048;-72
2021/09/18 01:03:00;;;;;;;47.67;31.63;;;11.00;99.90;;;;;;4193132;28;20029;-71
2021/09/18 01:05:02;;;;;;;53.88;31.25;;;11.00;99.90;;;;;;4196029;28;20033;-73
2021/09/18 01:07:04;;;;;;;45.60;28.05;;;11.10;99.90;;;;;;4193125;28;20540;-72
2021/09/18 01:09:05;;;;;;;46.42;30.00;;;11.00;99.90;;;;;;4197115;28;20055;-72
2021/09/18 01:11:06;;;;;;;55.90;34.40;;;11.00;99.90;;;;;;4194366;28;20051;-73
2021/09/18 01:13:15;;;;;;;44.85;30.88;;;11.00;99.90;;;;;;4196876;28;20029;-73
2021/09/18 01:15:15;;;;;;;44.42;29.70;;;11.00;99.90;;;;;;4198262;28;20036;-72
2021/09/18 01:17:16;;;;;;;40.50;26.67;;;10.90;99.90;;;;;;4197464;28;20040;-72
2021/09/18 01:19:17;;;;;;;46.03;28.25;;;10.90;99.90;;;;;;4201487;28;20032;-71
2021/09/18 01:21:18;;;;;;;44.40;28.35;;;10.90;99.90;;;;;;4193782;28;20052;-72
2021/09/18 01:23:21;;;;;;;49.05;29.48;;;10.90;99.90;;;;;;4195549;28;20032;-71
2021/09/18 01:25:22;;;;;;;41.78;28.23;;;10.90;99.90;;;;;;4192452;28;20384;-71
2021/09/18 01:27:22;;;;;;;44.53;29.55;;;10.90;99.90;;;;;;4193216;28;20033;-71
2021/09/18 01:29:23;;;;;;;46.08;28.30;;;10.90;99.90;;;;;;4192226;28;20123;-71
2021/09/18 01:31:24;;;;;;;39.03;26.33;;;10.90;99.90;;;;;;4192538;28;20035;-72
2021/09/18 01:33:24;;;;;;;49.75;30.63;;;10.90;99.90;;;;;;4195432;28;20082;-72
2021/09/18 01:35:25;;;;;;;41.10;26.67;;;10.90;99.90;;;;;;4197872;28;20029;-73
2021/09/18 01:37:27;;;;;;;44.15;29.30;;;10.90;99.90;;;;;;4195506;28;20127;-72
2021/09/18 01:39:27;;;;;;;43.88;27.27;;;10.90;99.90;;;;;;4194724;28;20468;-72
2021/09/18 01:41:31;;;;;;;42.00;26.88;;;10.90;99.90;;;;;;4189528;28;20025;-73
2021/09/18 01:43:31;;;;;;;40.47;25.73;;;10.90;99.90;;;;;;4196277;28;20055;-73
2021/09/18 01:45:33;;;;;;;36.75;24.85;;;10.80;99.90;;;;;;4189250;28;20032;-73
2021/09/18 01:47:45;;;;;;;41.78;25.73;;;10.80;99.90;;;;;;4194894;28;20593;-73
2021/09/18 01:49:46;;;;;;;51.05;30.80;;;10.70;99.90;;;;;;4189603;28;20039;-72
2021/09/18 01:52:07;;;;;;;53.13;30.23;;;10.70;99.90;;;;;;4192355;28;20128;-72
2021/09/18 01:54:09;;;;;;;48.40;27.88;;;10.70;99.90;;;;;;4196944;28;20036;-73
2021/09/18 01:56:10;;;;;;;53.80;31.08;;;10.70;99.90;;;;;;4191450;28;20075;-72
2021/09/18 01:58:11;;;;;;;51.95;28.58;;;10.70;99.90;;;;;;4197435;28;20028;-72
2021/09/18 02:00:15;;;;;;;35.55;24.33;;;10.70;99.90;;;;;;4188409;28;20078;-72
2021/09/18 02:02:15;;;;;;;42.38;27.98;;;10.70;99.90;;;;;;4194922;28;20044;-73
2021/09/18 02:04:16;;;;;;;43.97;28.08;;;10.60;99.90;;;;;;4193280;28;20052;-72
2021/09/18 02:06:16;;;;;;;42.45;27.50;;;10.60;99.90;;;;;;4196899;28;20040;-72
2021/09/18 02:08:18;;;;;;;35.47;24.25;;;10.50;99.90;;;;;;4203607;28;20645;-72
2021/09/18 02:10:21;;;;;;;38.20;24.95;;;10.50;99.90;;;;;;4188625;28;20437;-73
2021/09/18 02:12:21;;;;;;;40.40;27.63;;;10.50;99.90;;;;;;4191252;28;20090;-72
2021/09/18 02:14:22;;;;;;;42.50;26.98;;;10.50;99.90;;;;;;4195397;28;20028;-72
2021/09/18 02:16:22;;;;;;;42.10;26.77;;;10.40;99.90;;;;;;4196501;28;20033;-72
2021/09/18 02:18:23;;;;;;;48.85;29.98;;;10.40;99.90;;;;;;4193123;28;20568;-72
2021/09/18 02:20:29;;;;;;;49.22;29.13;;;10.40;99.90;;;;;;4197281;28;20105;-72
2021/09/18 02:22:30;;;;;;;48.55;30.90;;;10.40;99.90;;;;;;4194575;28;20078;-72
2021/09/18 02:24:31;;;;;;;47.88;29.88;;;10.40;99.90;;;;;;4197233;28;20029;-73
2021/09/18 02:26:31;;;;;;;44.08;26.40;;;10.40;99.90;;;;;;4186653;28;20079;-72
2021/09/18 02:28:32;;;;;;;48.40;30.95;;;10.40;99.90;;;;;;4195981;28;20108;-73
2021/09/18 02:30:35;;;;;;;46.38;27.80;;;10.30;99.90;;;;;;4194829;28;20025;-73
2021/09/18 02:32:36;;;;;;;41.63;26.90;;;10.30;99.90;;;;;;4194721;28;20121;-72
2021/09/18 02:34:36;;;;;;;44.55;28.05;;;10.40;99.90;;;;;;4191872;28;20487;-73
2021/09/18 02:36:37;;;;;;;39.90;26.33;;;10.30;99.90;;;;;;4195295;28;20032;-72
2021/09/18 02:38:38;;;;;;;40.88;26.23;;;10.30;99.90;;;;;;4196420;28;20029;-72
2021/09/18 02:40:40;;;;;;;41.65;27.00;;;10.30;99.90;;;;;;4193438;28;20036;-72
2021/09/18 02:42:44;;;;;;;35.65;24.92;;;10.20;99.90;;;;;;4192498;28;20077;-72
2021/09/18 02:44:44;;;;;;;35.75;24.70;;;10.20;99.90;;;;;;4188715;28;20045;-74
2021/09/18 02:46:45;;;;;;;38.80;25.10;;;10.20;99.90;;;;;;4183250;28;20476;-71
2021/09/18 02:48:46;;;;;;;37.05;25.05;;;10.10;99.90;;;;;;4188702;28;20037;-73
2021/09/18 02:50:47;;;;;;;48.58;28.30;;;10.10;99.90;;;;;;4182598;28;20024;-73
2021/09/18 02:52:48;;;;;;;44.35;28.23;;;10.10;99.90;;;;;;4199363;28;20041;-72
2021/09/18 02:54:49;;;;;;;48.90;30.90;;;10.20;99.90;;;;;;4196018;28;20129;-73
2021/09/18 02:56:49;;;;;;;47.00;29.80;;;10.20;99.90;;;;;;4186931;28;20025;-72
2021/09/18 02:58:50;;;;;;;44.55;27.25;;;10.20;99.90;;;;;;4193525;28;20119;-73
2021/09/18 03:00:51;;;;;;;41.65;28.45;;;10.20;99.90;;;;;;4190262;28;20033;-73
2021/09/18 03:02:51;;;;;;;43.08;28.17;;;10.20;99.90;;;;;;4191082;28;20036;-72
2021/09/18 03:04:52;;;;;;;56.78;31.98;;;10.20;99.90;;;;;;4197363;28;20423;-72
2021/09/18 03:06:52;;;;;;;52.83;31.70;;;10.10;99.90;;;;;;4192513;28;20067;-73
2021/09/18 03:08:55;;;;;;;50.72;31.42;;;10.20;99.90;;;;;;4195624;28;20396;-73
2021/09/18 03:10:56;;;;;;;46.08;28.50;;;10.20;99.90;;;;;;4190158;28;20067;-73
2021/09/18 03:12:56;;;;;;;44.28;30.33;;;10.20;99.90;;;;;;4187735;28;20044;-73
2021/09/18 03:14:57;;;;;;;57.53;34.58;;;10.20;99.90;;;;;;4193599;28;20032;-72
2021/09/18 03:16:58;;;;;;;43.75;28.58;;;10.10;99.90;;;;;;4196532;28;20119;-72
2021/09/18 03:18:59;;;;;;;55.03;33.45;;;10.00;99.90;;;;;;4191372;28;20111;-73
2021/09/18 03:21:00;;;;;;;60.35;36.08;;;10.00;99.90;;;;;;4195056;28;20033;-72
2021/09/18 03:23:01;;;;;;;50.13;30.42;;;10.10;99.90;;;;;;4193376;28;20550;-73
2021/09/18 03:25:03;;;;;;;45.95;27.85;;;10.10;99.90;;;;;;4194844;28;20025;-73
2021/09/18 03:27:04;;;;;;;66.38;39.30;;;10.10;99.90;;;;;;4196678;28;20090;-73
2021/09/18 03:29:05;;;;;;;68.30;36.60;;;10.10;99.90;;;;;;4194786;28;20040;-73
2021/09/18 03:31:05;;;;;;;61.72;38.75;;;10.10;99.90;;;;;;4195918;28;20082;-73
2021/09/18 03:33:06;;;;;;;61.25;37.03;;;10.20;99.90;;;;;;4194577;28;20554;-73
2021/09/18 03:35:07;;;;;;;63.67;38.47;;;10.20;99.90;;;;;;4192220;28;20041;-73
2021/09/18 03:37:08;;;;;;;69.63;38.70;;;10.20;99.90;;;;;;4190573;28;20037;-72
2021/09/18 03:39:08;;;;;;;60.20;38.03;;;10.20;99.90;;;;;;4195252;28;20060;-72
2021/09/18 03:41:09;;;;;;;66.05;42.40;;;10.20;99.90;;;;;;4189749;28;20029;-71
2021/09/18 03:43:09;;;;;;;74.43;45.38;;;10.20;99.90;;;;;;4194479;28;20391;-73
2021/09/18 03:45:10;;;;;;;64.82;38.80;;;10.20;99.90;;;;;;4192571;28;20043;-72
2021/09/18 03:47:11;;;;;;;66.63;41.13;;;10.20;99.90;;;;;;4189385;28;20478;-73
2021/09/18 03:49:12;;;;;;;97.13;48.40;;;10.10;99.90;;;;;;4193008;28;20036;-73
2021/09/18 03:51:12;;;;;;;86.03;48.58;;;10.10;99.90;;;;;;4191295;28;20113;-73
2021/09/18 03:53:13;;;;;;;90.90;45.65;;;10.20;99.90;;;;;;4193134;28;20356;-73
2021/09/18 03:55:14;;;;;;;94.25;47.50;;;10.30;99.90;;;;;;4193399;28;20029;-73
2021/09/18 03:57:14;;;;;;;91.68;45.03;;;10.20;99.90;;;;;;4192739;28;20032;-73
2021/09/18 03:59:15;;;;;;;97.70;47.42;;;10.30;99.90;;;;;;4186988;28;20035;-73
2021/09/18 04:01:15;;;;;;;88.72;45.58;;;10.30;99.90;;;;;;4187365;28;20440;-73
2021/09/18 04:03:16;;;;;;;79.72;40.22;;;10.30;99.90;;;;;;4189416;28;20063;-73
2021/09/18 04:05:17;;;;;;;92.30;44.55;;;10.30;99.90;;;;;;4188290;28;20032;-73
2021/09/18 04:07:18;;;;;;;94.68;39.05;;;10.30;99.90;;;;;;4191103;28;20029;-72
2021/09/18 04:09:18;;;;;;;182.55;49.75;;;10.30;99.90;;;;;;4194729;28;20040;-72
2021/09/18 04:11:19;;;;;;;120.05;48.28;;;10.30;99.90;;;;;;4188918;28;20120;-72
2021/09/18 04:13:20;;;;;;;122.95;52.80;;;10.40;99.90;;;;;;4195187;28;20034;-71
2021/09/18 04:15:21;;;;;;;159.18;51.22;;;10.30;99.90;;;;;;4185279;28;20451;-72
2021/09/18 04:17:22;;;;;;;200.88;59.42;;;10.30;99.90;;;;;;4193320;28;20056;-72
2021/09/18 04:19:22;;;;;;;84.57;40.95;;;10.40;99.90;;;;;;4193670;28;20031;-72
2021/09/18 04:21:23;;;;;;;96.85;46.42;;;10.30;99.90;;;;;;4187233;28;20033;-72
2021/09/18 04:23:24;;;;;;;85.85;49.28;;;10.30;99.90;;;;;;4192069;28;20032;-72
2021/09/18 04:25:25;;;;;;;102.78;47.30;;;10.30;99.90;;;;;;4191256;28;20056;-72
2021/09/18 04:27:26;;;;;;;90.85;42.20;;;10.30;99.90;;;;;;4190587;28;20702;-72
2021/09/18 04:29:26;;;;;;;82.60;40.17;;;10.30;99.90;;;;;;4193221;28;20077;-72
2021/09/18 04:31:27;;;;;;;82.22;39.35;;;10.20;99.90;;;;;;4195626;28;20032;-72
2021/09/18 04:33:28;;;;;;;85.15;46.88;;;10.20;99.90;;;;;;4190250;28;20033;-73
2021/09/18 04:35:28;;;;;;;83.82;46.65;;;10.20;99.90;;;;;;4195312;28;20035;-73
2021/09/18 04:37:29;;;;;;;86.47;44.97;;;10.20;99.90;;;;;;4188806;28;20170;-73
2021/09/18 04:39:30;;;;;;;73.53;37.97;;;10.20;99.90;;;;;;4194232;28;20115;-73
2021/09/18 04:41:30;;;;;;;72.90;37.72;;;10.20;99.90;;;;;;4191778;28;20082;-73
2021/09/18 04:43:31;;;;;;;78.20;40.33;;;10.10;99.90;;;;;;4195186;28;20092;-73
2021/09/18 04:45:31;;;;;;;78.85;39.58;;;10.10;99.90;;;;;;4193709;28;20052;-73
2021/09/18 04:47:32;;;;;;;85.50;40.28;;;10.10;99.90;;;;;;4194185;28;20124;-73
2021/09/18 04:49:33;;;;;;;79.18;43.55;;;10.10;99.90;;;;;;4189368;28;20035;-73
2021/09/18 04:51:33;;;;;;;78.10;38.22;;;10.20;99.90;;;;;;4189352;28;20102;-73
2021/09/18 04:53:34;;;;;;;67.72;37.83;;;10.20;99.90;;;;;;4189336;28;20032;-73
2021/09/18 04:55:35;;;;;;;76.20;39.72;;;10.20;99.90;;;;;;4190289;28;20166;-73
2021/09/18 04:57:35;;;;;;;71.28;37.38;;;10.20;99.90;;;;;;4199268;28;20103;-73
2021/09/18 04:59:36;;;;;;;70.00;37.90;;;10.20;99.90;;;;;;4191708;28;20025;-73
2021/09/18 05:01:37;;;;;;;67.13;35.55;;;10.20;99.90;;;;;;4195829;28;20032;-73
2021/09/18 05:03:37;;;;;;;69.38;37.58;;;10.30;99.90;;;;;;4191385;28;20464;-73
2021/09/18 05:05:38;;;;;;;65.20;36.65;;;10.30;99.90;;;;;;4194459;28;20376;-73
2021/09/18 05:07:39;;;;;;;72.88;38.83;;;10.30;99.90;;;;;;4188500;28;20630;-73
2021/09/18 05:09:40;;;;;;;62.70;35.70;;;10.30;99.90;;;;;;4194251;28;20028;-72
2021/09/18 05:11:40;;;;;;;63.35;34.78;;;10.30;99.90;;;;;;4190598;28;20021;-72
2021/09/18 05:13:41;;;;;;;62.50;36.63;;;10.20;99.90;;;;;;4194637;28;20116;-73
2021/09/18 05:15:42;;;;;;;63.35;33.08;;;10.20;99.90;;;;;;4192414;28;20115;-72
2021/09/18 05:17:43;;;;;;;53.47;32.20;;;10.20;99.90;;;;;;4193781;28;20032;-73
2021/09/18 05:19:44;;;;;;;54.03;32.08;;;10.20;99.90;;;;;;4189200;28;20077;-73
2021/09/18 05:21:45;;;;;;;62.08;36.60;;;10.20;99.90;;;;;;4193925;28;20131;-73
2021/09/18 05:23:45;;;;;;;69.95;37.97;;;10.20;99.90;;;;;;4189850;28;20390;-73
2021/09/18 05:25:46;;;;;;;62.75;34.15;;;10.20;99.90;;;;;;4197483;28;20120;-73
2021/09/18 05:27:47;;;;;;;55.65;31.30;;;10.30;99.90;;;;;;4196801;28;20565;-73
2021/09/18 05:29:47;;;;;;;63.10;34.53;;;10.30;99.90;;;;;;4193739;28;20032;-73
2021/09/18 05:31:48;;;;;;;59.30;30.90;;;10.40;99.90;;;;;;4197116;28;20041;-73
2021/09/18 05:33:49;;;;;;;66.63;33.03;;;10.40;99.90;;;;;;4192110;28;20139;-72
2021/09/18 05:35:49;;;;;;;64.82;33.50;;;10.50;99.90;;;;;;4197172;28;20029;-72
2021/09/18 05:37:50;;;;;;;71.72;33.63;;;10.50;99.90;;;;;;4190746;28;20047;-72
2021/09/18 05:39:51;;;;;;;68.95;35.50;;;10.60;99.90;;;;;;4195184;28;20468;-73
2021/09/18 05:41:51;;;;;;;79.07;39.08;;;10.60;99.90;;;;;;4196022;28;20499;-73
2021/09/18 05:43:52;;;;;;;78.93;37.70;;;10.70;99.90;;;;;;4197718;28;20032;-73
2021/09/18 05:45:52;;;;;;;144.32;42.42;;;10.70;99.90;;;;;;4192396;28;20033;-73
2021/09/18 05:47:53;;;;;;;81.22;34.90;;;10.70;99.90;;;;;;4196067;28;20038;-74
2021/09/18 05:49:54;;;;;;;100.70;40.28;;;10.80;99.90;;;;;;4197503;28;20039;-73
2021/09/18 05:51:54;;;;;;;107.53;43.22;;;10.80;99.90;;;;;;4192886;28;20044;-73
2021/09/18 05:53:55;;;;;;;96.03;41.67;;;10.90;99.90;;;;;;4189321;28;20385;-73
2021/09/18 05:55:55;;;;;;;142.45;46.17;;;10.90;99.90;;;;;;4197329;28;20083;-73
2021/09/18 05:57:56;;;;;;;164.77;47.78;;;11.00;99.90;;;;;;4195602;28;20037;-73
2021/09/18 05:59:57;;;;;;;203.50;50.13;;;11.00;99.90;;;;;;4194642;28;20481;-73
2021/09/18 06:01:57;;;;;;;95.90;35.40;;;11.10;99.90;;;;;;4197468;28;20029;-73
2021/09/18 06:03:58;;;;;;;129.68;41.65;;;11.10;99.90;;;;;;4189443;28;20381;-73
2021/09/18 06:05:59;;;;;;;156.90;43.97;;;11.10;99.90;;;;;;4196589;28;20115;-73
2021/09/18 06:08:00;;;;;;;120.43;43.55;;;11.20;99.90;;;;;;4195098;28;20032;-73
2021/09/18 06:10:00;;;;;;;116.28;39.40;;;11.20;99.90;;;;;;4191717;28;20033;-73
2021/09/18 06:12:01;;;;;;;133.05;40.83;;;11.30;99.90;;;;;;4187053;28;20373;-72
2021/09/18 06:14:01;;;;;;;91.20;33.33;;;11.30;99.90;;;;;;4191044;28;20459;-72
2021/09/18 06:16:02;;;;;;;100.38;34.38;;;11.30;99.90;;;;;;4184232;28;20124;-72
2021/09/18 06:18:03;;;;;;;175.88;47.38;;;11.30;99.90;;;;;;4192625;28;20039;-72
2021/09/18 06:20:04;;;;;;;117.80;41.80;;;11.30;99.90;;;;;;4190555;28;20028;-73
2021/09/18 06:22:05;;;;;;;162.00;49.35;;;11.30;99.90;;;;;;4192890;28;20067;-73
2021/09/18 06:24:10;;;;;;;108.97;41.38;;;11.30;99.90;;;;;;4186544;28;20116;-72
2021/09/18 06:26:11;;;;;;;102.32;40.60;;;11.40;99.90;;;;;;4193341;28;20024;-73
2021/09/18 06:28:12;;;;;;;104.78;42.67;;;11.40;99.90;;;;;;4196744;28;20029;-73
2021/09/18 06:30:14;;;;;;;103.28;40.42;;;11.50;99.90;;;;;;4188879;28;20392;-73
2021/09/18 06:32:15;;;;;;;96.78;41.85;;;11.60;99.90;;;;;;4196495;28;20036;-72
2021/09/18 06:34:15;;;;;;;100.47;42.17;;;11.70;99.90;;;;;;4185183;28;20070;-72
2021/09/18 06:36:16;;;;;;;110.82;44.13;;;11.80;99.90;;;;;;4193931;28;20039;-73
2021/09/18 06:38:21;;;;;;;141.05;48.10;;;12.00;99.90;;;;;;4186928;28;20044;-71
2021/09/18 06:40:22;;;;;;;141.55;46.42;;;12.00;99.90;;;;;;4184918;28;20132;-72
2021/09/18 06:42:23;;;;;;;133.13;43.83;;;12.10;99.90;;;;;;4185963;28;20481;-73
2021/09/18 06:44:23;;;;;;;190.30;52.10;;;12.20;99.90;;;;;;4187202;28;20034;-72
2021/09/18 06:46:24;;;;;;;157.88;50.45;;;12.30;99.90;;;;;;4188306;28;20413;-72
2021/09/18 06:48:25;;;;;;;151.80;47.22;;;12.40;99.90;;;;;;4186191;28;20083;-73
2021/09/18 06:50:25;;;;;;;130.48;45.25;;;12.40;99.90;;;;;;4183809;28;20025;-73
2021/09/18 06:52:26;;;;;;;96.68;37.55;;;12.50;99.90;;;;;;4188004;28;20048;-72
2021/09/18 06:54:27;;;;;;;86.18;36.00;;;12.50;99.90;;;;;;4184555;28;20036;-73
2021/09/18 06:56:27;;;;;;;89.57;34.78;;;12.60;99.90;;;;;;4188127;28;20127;-73
2021/09/18 06:58:28;;;;;;;77.50;32.97;;;12.80;99.90;;;;;;4184053;28;20123;-73
2021/09/18 07:00:30;;;;;;;77.60;32.88;;;12.80;99.90;;;;;;4188537;28;20037;-73
2021/09/18 07:02:30;;;;;;;92.70;35.25;;;12.80;99.90;;;;;;4185837;28;20025;-73
2021/09/18 07:04:31;;;;;;;60.35;28.17;;;12.80;99.90;;;;;;4185396;28;20652;-73
2021/09/18 07:06:32;;;;;;;78.72;33.92;;;12.70;99.90;;;;;;4191430;28;20044;-73
2021/09/18 07:08:32;;;;;;;79.70;35.22;;;12.80;99.90;;;;;;4187554;28;20029;-72
2021/09/18 07:10:33;;;;;;;94.97;38.63;;;12.80;99.90;;;;;;4190617;28;20036;-73
2021/09/18 07:12:33;;;;;;;92.18;37.10;;;12.90;99.90;;;;;;4188712;28;20493;-72
2021/09/18 07:14:34;;;;;;;65.15;31.02;;;12.90;99.90;;;;;;4187310;28;20133;-73
2021/09/18 07:16:35;;;;;;;84.38;35.67;;;12.90;99.90;;;;;;4188036;28;20492;-73
2021/09/18 07:18:35;;;;;;;65.10;32.67;;;12.90;99.90;;;;;;4191124;28;20033;-72
2021/09/18 07:20:36;;;;;;;83.55;34.40;;;13.00;99.90;;;;;;4192434;28;20503;-72
2021/09/18 07:22:38;;;;;;;60.65;30.58;;;13.10;99.90;;;;;;4192051;28;20373;-73
2021/09/18 07:24:38;;;;;;;54.67;29.08;;;13.20;99.90;;;;;;4189858;28;20119;-72
2021/09/18 07:26:39;;;;;;;69.60;33.33;;;13.30;99.90;;;;;;4188166;28;20077;-72
2021/09/18 07:28:39;;;;;;;69.70;32.78;;;13.50;99.90;;;;;;4192824;28;20085;-72
2021/09/18 07:30:40;;;;;;;62.80;31.60;;;13.60;99.90;;;;;;4191118;28;20065;-73
2021/09/18 07:32:41;;;;;;;68.97;34.28;;;13.80;99.90;;;;;;4191654;28;20041;-72
2021/09/18 07:34:41;;;;;;;70.82;35.22;;;14.00;99.90;;;;;;4191833;28;20123;-72
2021/09/18 07:36:42;;;;;;;64.28;35.20;;;14.20;99.90;;;;;;4194660;28;20082;-72
2021/09/18 07:38:42;;;;;;;60.00;34.33;;;14.30;99.90;;;;;;4190761;28;20137;-72
2021/09/18 07:40:43;;;;;;;59.58;34.15;;;14.40;99.90;;;;;;4194622;28;20040;-73
2021/09/18 07:42:44;;;;;;;71.93;37.88;;;14.60;99.90;;;;;;4194122;28;20102;-72
2021/09/18 07:44:44;;;;;;;73.07;36.67;;;14.80;99.90;;;;;;4199906;28;20106;-73
2021/09/18 07:46:45;;;;;;;65.28;36.67;;;14.90;99.90;;;;;;4181153;28;20492;-73
2021/09/18 07:48:45;;;;;;;73.00;37.45;;;15.00;99.90;;;;;;4190950;28;20105;-73
2021/09/18 07:50:46;;;;;;;59.58;36.03;;;15.20;99.90;;;;;;4193632;28;20061;-72
2021/09/18 07:52:47;;;;;;;61.92;34.92;;;15.30;99.90;;;;;;4191130;28;20052;-72
2021/09/18 07:54:47;;;;;;;57.45;34.17;;;15.30;99.90;;;;;;4198785;28;20064;-72
2021/09/18 07:56:48;;;;;;;59.15;36.38;;;15.40;99.90;;;;;;4187304;28;20025;-73
2021/09/18 07:58:49;;;;;;;57.67;36.03;;;15.40;99.90;;;;;;4189833;28;20090;-72
2021/09/18 08:00:50;;;;;;;57.20;36.53;;;15.40;99.90;;;;;;4190058;28;20036;-73
2021/09/18 08:02:52;;;;;;;60.05;35.35;;;15.30;99.90;;;;;;4187730;28;20095;-73
2021/09/18 08:04:52;;;;;;;55.20;35.20;;;15.30;99.90;;;;;;4190743;28;20430;-73
2021/09/18 08:06:53;;;;;;;61.05;37.70;;;15.30;99.90;;;;;;4194026;28;20036;-72
2021/09/18 08:08:54;;;;;;;61.88;41.50;;;15.20;99.90;;;;;;4192236;28;20079;-72
2021/09/18 08:10:55;;;;;;;56.00;35.53;;;15.20;99.90;;;;;;4175197;28;20492;-71
2021/09/18 08:12:56;;;;;;;56.05;36.00;;;15.30;99.90;;;;;;4186302;28;20044;-72
2021/09/18 08:14:57;;;;;;;57.58;37.85;;;15.30;99.90;;;;;;4193367;28;20032;-73
2021/09/18 08:16:57;;;;;;;60.83;35.60;;;15.30;99.90;;;;;;4190709;28;20480;-73
2021/09/18 08:18:58;;;;;;;60.08;37.58;;;15.20;99.90;;;;;;4190738;28;20033;-72
2021/09/18 08:20:58;;;;;;;52.88;35.63;;;15.30;99.90;;;;;;4183579;28;20051;-72
2021/09/18 08:22:59;;;;;;;52.70;34.90;;;15.40;99.90;;;;;;4190623;28;20037;-72
2021/09/18 08:25:00;;;;;;;45.40;32.53;;;15.40;99.90;;;;;;4195497;28;20028;-73
2021/09/18 08:27:00;;;;;;;50.25;31.17;;;15.60;99.90;;;;;;4190975;28;20116;-73
2021/09/18 08:29:01;;;;;;;45.75;30.83;;;15.70;99.90;;;;;;4193567;28;20036;-73
2021/09/18 08:31:02;;;;;;;46.53;33.47;;;15.80;99.90;;;;;;4188478;28;20116;-72
2021/09/18 08:33:02;;;;;;;48.95;32.88;;;15.90;99.90;;;;;;4184002;28;20044;-73
2021/09/18 08:35:03;;;;;;;45.88;32.95;;;15.90;99.90;;;;;;4187957;28;20365;-72
2021/09/18 08:37:04;;;;;;;47.63;31.77;;;16.00;99.90;;;;;;4187935;28;20132;-73
2021/09/18 08:39:05;;;;;;;44.60;30.73;;;16.10;99.90;;;;;;4189091;28;20035;-73
2021/09/18 08:41:07;;;;;;;42.38;30.80;;;16.20;99.90;;;;;;4189816;28;20461;-72
2021/09/18 08:43:07;;;;;;;40.22;29.92;;;16.30;99.90;;;;;;4188134;28;20388;-73
2021/09/18 08:45:12;;;;;;;38.28;29.13;;;16.40;99.90;;;;;;4191741;28;20036;-73
2021/09/18 08:47:14;;;;;;;33.75;27.55;;;16.40;99.90;;;;;;4188342;28;20037;-73
2021/09/18 08:49:15;;;;;;;35.13;26.40;;;16.50;99.90;;;;;;4189171;28;20100;-73
2021/09/18 08:51:16;;;;;;;32.30;27.42;;;16.60;99.90;;;;;;4190395;28;20119;-73
2021/09/18 08:53:16;;;;;;;33.85;27.88;;;16.70;99.90;;;;;;4184951;28;20056;-73
2021/09/18 08:55:17;;;;;;;34.58;28.83;;;16.90;99.90;;;;;;4193021;28;20526;-73
2021/09/18 08:57:17;;;;;;;34.38;27.45;;;17.00;99.90;;;;;;4190594;28;20040;-73
2021/09/18 08:59:18;;;;;;;32.60;27.58;;;17.10;99.90;;;;;;4191412;28;20095;-72
2021/09/18 09:01:20;;;;;;;27.55;23.80;;;17.30;99.90;;;;;;4194444;28;20162;-74
2021/09/18 09:03:26;;;;;;;27.88;24.70;;;17.50;99.90;;;;;;4194670;28;20033;-73
2021/09/18 09:05:30;;;;;;;26.45;23.48;;;17.70;99.90;;;;;;4194493;28;20398;-72
2021/09/18 09:07:30;;;;;;;28.20;24.27;;;17.90;99.90;;;;;;4196850;28;20115;-72
2021/09/18 09:09:57;;;;;;;31.33;24.23;;;18.00;99.90;;;;;;4192781;28;20037;-73
2021/09/18 09:11:58;;;;;;;28.10;23.52;;;18.10;99.90;;;;;;4190886;28;20033;-72
2021/09/18 09:14:05;;;;;;;26.23;22.50;;;18.30;99.90;;;;;;4193852;28;20025;-72
2021/09/18 09:16:07;;;;;;;29.90;25.67;;;18.50;99.90;;;;;;4191340;28;20479;-72
2021/09/18 09:18:17;;;;;;;46.83;39.58;;;18.60;99.90;;;;;;4195938;28;20028;-72
2021/09/18 09:20:23;;;;;;;25.42;21.58;;;18.80;99.90;;;;;;4195034;28;20032;-73
2021/09/18 09:22:44;;;;;;;27.35;21.20;;;19.00;99.90;;;;;;4193590;28;20025;-71
2021/09/18 09:24:48;;;;;;;27.30;21.92;;;19.30;99.90;;;;;;4191309;28;20060;-72
2021/09/18 09:27:09;;;;;;;23.65;21.20;;;19.60;99.90;;;;;;4191799;28;20029;-71
2021/09/18 09:29:09;;;;;;;23.13;20.67;;;20.00;99.90;;;;;;4189233;28;20036;-72
2021/09/18 09:31:17;;;;;;;21.13;18.90;;;20.20;99.90;;;;;;4194382;28;20029;-72
2021/09/18 09:33:18;;;;;;;21.80;19.58;;;20.50;99.90;;;;;;4191797;28;20048;-72
2021/09/18 09:35:19;;;;;;;19.17;17.25;;;20.80;99.90;;;;;;4194777;28;20024;-72
2021/09/18 09:37:21;;;;;;;20.42;18.17;;;21.30;99.90;;;;;;4192191;28;20039;-72
2021/09/18 09:39:24;;;;;;;20.05;18.05;;;21.50;99.90;;;;;;4193797;28;20040;-72
2021/09/18 09:41:36;;;;;;;22.33;20.23;;;21.70;99.90;;;;;;4191684;28;20028;-72
2021/09/18 09:43:43;;;;;;;20.45;18.35;;;21.90;99.90;;;;;;4189110;28;20086;-73
2021/09/18 09:45:45;;;;;;;22.00;19.45;;;22.20;99.90;;;;;;4193062;28;20033;-72
2021/09/18 09:47:59;;;;;;;21.60;19.30;;;22.30;99.90;;;;;;4194234;28;20453;-73
2021/09/18 09:49:59;;;;;;;24.65;19.05;;;22.60;99.90;;;;;;4190237;28;20376;-73
2021/09/18 09:52:25;;;;;;;17.55;15.63;;;22.90;99.90;;;;;;4195220;28;20036;-73
2021/09/18 09:54:26;;;;;;;16.70;15.00;;;23.10;99.90;;;;;;4211226;28;20179;-72
2021/09/18 09:56:27;;;;;;;17.73;15.63;;;23.30;99.90;;;;;;4188991;28;20484;-73
2021/09/18 09:58:27;;;;;;;17.65;15.70;;;23.70;99.90;;;;;;4196240;28;20028;-73
2021/09/18 10:00:40;;;;;;;18.40;16.60;;;23.90;99.90;;;;;;4189677;28;20396;-73
2021/09/18 10:02:43;;;;;;;18.60;15.68;;;23.60;99.90;;;;;;4190631;28;20556;-72
2021/09/18 10:04:43;;;;;;;18.23;16.40;;;23.50;99.90;;;;;;4190945;28;20029;-74
2021/09/18 10:06:45;;;;;;;21.38;19.20;;;23.70;99.90;;;;;;4195479;28;20455;-70
2021/09/18 10:08:49;;;;;;;20.95;18.77;;;23.90;99.90;;;;;;4190102;28;20391;-72
2021/09/18 10:10:50;;;;;;;20.05;17.90;;;24.20;99.90;;;;;;4194827;28;20090;-71
2021/09/18 10:12:51;;;;;;;22.05;19.95;;;24.40;99.90;;;;;;4187248;28;20086;-70
2021/09/18 10:14:54;;;;;;;18.30;16.63;;;24.60;99.90;;;;;;4195182;28;20127;-72